sensor_id;sensor_type;location;lat;lon;timestamp;P1;durP1;ratioP1;P2;durP2;ratioP2
46334;SDS011;32051;48.882;9.210;2023-03-01T00:02:00;16.58;;;10.13;;
46334;SDS011;32051;48.882;9.210;2023-03-01T00:04:26;20.83;;;11.30;;
46334;SDS011;32051;48.882;9.210;2023-03-01T00:06:52;14.35;;;10.48;;
46334;SDS011;32051;48.882;9.210;2023-03-01T00:09:19;15.38;;;10.00;;
46334;SDS011;32051;48.882;9.210;2023-03-01T00:11:45;17.15;;;10.95;;
46334;SDS011;32051;48.882;9.210;2023-03-01T00:14:11;16.48;;;9.60;;
46334;SDS011;32051;48.882;9.210;2023-03-01T00:16:41;14.88;;;9.90;;
46334;SDS011;32051;48.882;9.210;2023-03-01T00:19:11;16.38;;;10.30;;
46334;SDS011;32051;48.882;9.210;2023-03-01T00:21:38;13.73;;;9.57;;
46334;SDS011;32051;48.882;9.210;2023-03-01T00:24:03;15.98;;;10.68;;
46334;SDS011;32051;48.882;9.210;2023-03-01T00:26:29;16.77;;;9.98;;
46334;SDS011;32051;48.882;9.210;2023-03-01T00:28:56;18.55;;;10.82;;
46334;SDS011;32051;48.882;9.210;2023-03-01T00:31:24;22.27;;;10.63;;
46334;SDS011;32051;48.882;9.210;2023-03-01T00:33:54;17.33;;;10.57;;
46334;SDS011;32051;48.882;9.210;2023-03-01T00:36:24;19.80;;;11.40;;
46334;SDS011;32051;48.882;9.210;2023-03-01T00:38:50;19.08;;;12.10;;
46334;SDS011;32051;48.882;9.210;2023-03-01T00:41:17;24.65;;;10.45;;
46334;SDS011;32051;48.882;9.210;2023-03-01T00:43:43;14.75;;;10.02;;
46334;SDS011;32051;48.882;9.210;2023-03-01T00:46:13;18.45;;;10.63;;
46334;SDS011;32051;48.882;9.210;2023-03-01T00:48:40;14.88;;;10.32;;
46334;SDS011;32051;48.882;9.210;2023-03-01T00:51:07;16.33;;;10.80;;
46334;SDS011;32051;48.882;9.210;2023-03-01T00:53:33;18.23;;;9.45;;
46334;SDS011;32051;48.882;9.210;2023-03-01T00:55:59;16.20;;;10.93;;
46334;SDS011;32051;48.882;9.210;2023-03-01T00:58:25;19.92;;;11.00;;
46334;SDS011;32051;48.882;9.210;2023-03-01T01:00:51;16.05;;;10.90;;
46334;SDS011;32051;48.882;9.210;2023-03-01T01:03:18;18.13;;;11.30;;
46334;SDS011;32051;48.882;9.210;2023-03-01T01:05:44;17.42;;;11.20;;
46334;SDS011;32051;48.882;9.210;2023-03-01T01:08:10;15.65;;;11.30;;
46334;SDS011;32051;48.882;9.210;2023-03-01T01:10:36;17.10;;;10.15;;
46334;SDS011;32051;48.882;9.210;2023-03-01T01:13:03;23.08;;;11.90;;
46334;SDS011;32051;48.882;9.210;2023-03-01T01:15:29;12.93;;;10.52;;
46334;SDS011;32051;48.882;9.210;2023-03-01T01:17:55;16.38;;;12.00;;
46334;SDS011;32051;48.882;9.210;2023-03-01T01:20:21;15.45;;;10.65;;
46334;SDS011;32051;48.882;9.210;2023-03-01T01:22:47;18.27;;;11.65;;
46334;SDS011;32051;48.882;9.210;2023-03-01T01:25:13;17.25;;;11.98;;
46334;SDS011;32051;48.882;9.210;2023-03-01T01:27:39;16.58;;;12.13;;
46334;SDS011;32051;48.882;9.210;2023-03-01T01:30:05;19.98;;;11.15;;
46334;SDS011;32051;48.882;9.210;2023-03-01T01:32:32;20.90;;;12.50;;
46334;SDS011;32051;48.882;9.210;2023-03-01T01:35:00;23.65;;;11.20;;
46334;SDS011;32051;48.882;9.210;2023-03-01T01:37:26;20.08;;;10.90;;
46334;SDS011;32051;48.882;9.210;2023-03-01T01:39:57;20.85;;;11.68;;
46334;SDS011;32051;48.882;9.210;2023-03-01T01:42:24;24.35;;;11.50;;
46334;SDS011;32051;48.882;9.210;2023-03-01T01:45:24;16.98;;;11.50;;
46334;SDS011;32051;48.882;9.210;2023-03-01T01:47:39;17.23;;;10.98;;
46334;SDS011;32051;48.882;9.210;2023-03-01T01:50:08;22.15;;;12.35;;
46334;SDS011;32051;48.882;9.210;2023-03-01T01:52:35;19.98;;;11.52;;
46334;SDS011;32051;48.882;9.210;2023-03-01T01:55:07;21.63;;;11.48;;
46334;SDS011;32051;48.882;9.210;2023-03-01T01:57:39;16.20;;;11.45;;
46334;SDS011;32051;48.882;9.210;2023-03-01T02:00:07;25.00;;;13.10;;
46334;SDS011;32051;48.882;9.210;2023-03-01T02:02:43;19.80;;;11.07;;
46334;SDS011;32051;48.882;9.210;2023-03-01T02:05:19;18.80;;;12.38;;
46334;SDS011;32051;48.882;9.210;2023-03-01T02:07:46;18.75;;;10.98;;
46334;SDS011;32051;48.882;9.210;2023-03-01T02:10:13;20.80;;;12.15;;
46334;SDS011;32051;48.882;9.210;2023-03-01T02:12:39;21.80;;;11.43;;
46334;SDS011;32051;48.882;9.210;2023-03-01T02:15:05;20.70;;;12.27;;
46334;SDS011;32051;48.882;9.210;2023-03-01T02:17:31;15.32;;;10.13;;
46334;SDS011;32051;48.882;9.210;2023-03-01T02:20:20;16.75;;;11.32;;
46334;SDS011;32051;48.882;9.210;2023-03-01T02:22:47;20.25;;;11.70;;
46334;SDS011;32051;48.882;9.210;2023-03-01T02:30:28;16.35;;;12.45;;
46334;SDS011;32051;48.882;9.210;2023-03-01T02:32:56;20.98;;;11.93;;
46334;SDS011;32051;48.882;9.210;2023-03-01T02:35:28;17.92;;;11.63;;
46334;SDS011;32051;48.882;9.210;2023-03-01T02:37:54;18.25;;;11.43;;
46334;SDS011;32051;48.882;9.210;2023-03-01T02:40:22;15.40;;;11.35;;
46334;SDS011;32051;48.882;9.210;2023-03-01T02:42:50;22.38;;;11.85;;
46334;SDS011;32051;48.882;9.210;2023-03-01T02:45:17;12.50;;;10.63;;
46334;SDS011;32051;48.882;9.210;2023-03-01T02:47:43;18.52;;;12.25;;
46334;SDS011;32051;48.882;9.210;2023-03-01T02:53:04;17.20;;;11.32;;
46334;SDS011;32051;48.882;9.210;2023-03-01T02:55:32;17.13;;;11.20;;
46334;SDS011;32051;48.882;9.210;2023-03-01T02:58:01;19.27;;;11.85;;
46334;SDS011;32051;48.882;9.210;2023-03-01T03:00:32;23.35;;;13.25;;
46334;SDS011;32051;48.882;9.210;2023-03-01T03:03:00;24.70;;;13.07;;
46334;SDS011;32051;48.882;9.210;2023-03-01T03:05:28;17.05;;;10.65;;
46334;SDS011;32051;48.882;9.210;2023-03-01T03:07:57;19.63;;;10.93;;
46334;SDS011;32051;48.882;9.210;2023-03-01T03:10:25;21.23;;;13.15;;
46334;SDS011;32051;48.882;9.210;2023-03-01T03:12:55;22.70;;;12.93;;
46334;SDS011;32051;48.882;9.210;2023-03-01T03:15:22;18.13;;;11.75;;
46334;SDS011;32051;48.882;9.210;2023-03-01T03:17:48;21.95;;;13.32;;
46334;SDS011;32051;48.882;9.210;2023-03-01T03:20:16;17.23;;;10.88;;
46334;SDS011;32051;48.882;9.210;2023-03-01T03:22:47;23.33;;;12.43;;
46334;SDS011;32051;48.882;9.210;2023-03-01T03:25:14;19.98;;;12.20;;
46334;SDS011;32051;48.882;9.210;2023-03-01T03:27:41;19.60;;;11.25;;
46334;SDS011;32051;48.882;9.210;2023-03-01T03:30:08;18.65;;;12.10;;
46334;SDS011;32051;48.882;9.210;2023-03-01T03:32:38;16.80;;;10.95;;
46334;SDS011;32051;48.882;9.210;2023-03-01T03:35:05;14.63;;;11.27;;
46334;SDS011;32051;48.882;9.210;2023-03-01T03:37:40;17.70;;;12.95;;
46334;SDS011;32051;48.882;9.210;2023-03-01T03:40:25;19.85;;;11.60;;
46334;SDS011;32051;48.882;9.210;2023-03-01T03:42:51;19.02;;;11.57;;
46334;SDS011;32051;48.882;9.210;2023-03-01T03:45:17;20.20;;;13.55;;
46334;SDS011;32051;48.882;9.210;2023-03-01T03:47:43;20.13;;;12.30;;
46334;SDS011;32051;48.882;9.210;2023-03-01T03:50:10;22.88;;;12.70;;
46334;SDS011;32051;48.882;9.210;2023-03-01T03:52:37;17.70;;;12.52;;
46334;SDS011;32051;48.882;9.210;2023-03-01T03:55:03;19.60;;;11.77;;
46334;SDS011;32051;48.882;9.210;2023-03-01T03:57:34;15.65;;;11.05;;
46334;SDS011;32051;48.882;9.210;2023-03-01T04:00:00;18.45;;;11.60;;
46334;SDS011;32051;48.882;9.210;2023-03-01T04:02:37;22.92;;;12.57;;
46334;SDS011;32051;48.882;9.210;2023-03-01T04:05:10;17.10;;;11.25;;
46334;SDS011;32051;48.882;9.210;2023-03-01T04:07:37;21.88;;;12.00;;
46334;SDS011;32051;48.882;9.210;2023-03-01T04:10:07;18.05;;;12.57;;
46334;SDS011;32051;48.882;9.210;2023-03-01T04:12:40;18.58;;;12.10;;
46334;SDS011;32051;48.882;9.210;2023-03-01T04:15:08;18.20;;;12.43;;
46334;SDS011;32051;48.882;9.210;2023-03-01T04:17:39;17.35;;;12.00;;
46334;SDS011;32051;48.882;9.210;2023-03-01T04:20:07;22.35;;;12.25;;
46334;SDS011;32051;48.882;9.210;2023-03-01T04:22:37;16.95;;;12.52;;
46334;SDS011;32051;48.882;9.210;2023-03-01T04:25:04;24.95;;;12.38;;
46334;SDS011;32051;48.882;9.210;2023-03-01T04:27:34;19.15;;;12.88;;
46334;SDS011;32051;48.882;9.210;2023-03-01T04:30:01;16.60;;;11.52;;
46334;SDS011;32051;48.882;9.210;2023-03-01T04:32:28;20.20;;;12.50;;
46334;SDS011;32051;48.882;9.210;2023-03-01T04:34:54;16.27;;;11.45;;
46334;SDS011;32051;48.882;9.210;2023-03-01T04:37:19;20.77;;;11.90;;
46334;SDS011;32051;48.882;9.210;2023-03-01T04:39:45;18.40;;;11.10;;
46334;SDS011;32051;48.882;9.210;2023-03-01T04:42:12;22.98;;;13.10;;
46334;SDS011;32051;48.882;9.210;2023-03-01T04:44:38;20.40;;;11.90;;
46334;SDS011;32051;48.882;9.210;2023-03-01T04:47:04;19.85;;;12.75;;
46334;SDS011;32051;48.882;9.210;2023-03-01T04:49:30;23.13;;;11.85;;
46334;SDS011;32051;48.882;9.210;2023-03-01T04:51:56;24.95;;;12.73;;
46334;SDS011;32051;48.882;9.210;2023-03-01T04:54:27;19.23;;;13.02;;
46334;SDS011;32051;48.882;9.210;2023-03-01T04:56:53;19.80;;;12.40;;
46334;SDS011;32051;48.882;9.210;2023-03-01T04:59:20;17.55;;;11.18;;
46334;SDS011;32051;48.882;9.210;2023-03-01T05:01:49;20.83;;;11.65;;
46334;SDS011;32051;48.882;9.210;2023-03-01T05:04:15;18.05;;;12.05;;
46334;SDS011;32051;48.882;9.210;2023-03-01T05:06:41;18.02;;;12.35;;
46334;SDS011;32051;48.882;9.210;2023-03-01T05:09:06;17.40;;;11.80;;
46334;SDS011;32051;48.882;9.210;2023-03-01T05:11:32;21.45;;;13.60;;
46334;SDS011;32051;48.882;9.210;2023-03-01T05:14:04;21.23;;;13.00;;
46334;SDS011;32051;48.882;9.210;2023-03-01T05:16:30;21.65;;;13.10;;
46334;SDS011;32051;48.882;9.210;2023-03-01T05:18:57;19.20;;;13.02;;
46334;SDS011;32051;48.882;9.210;2023-03-01T05:21:23;22.67;;;12.95;;
46334;SDS011;32051;48.882;9.210;2023-03-01T05:23:49;21.85;;;12.13;;
46334;SDS011;32051;48.882;9.210;2023-03-01T05:26:15;21.90;;;11.43;;
46334;SDS011;32051;48.882;9.210;2023-03-01T05:28:42;17.02;;;12.30;;
46334;SDS011;32051;48.882;9.210;2023-03-01T05:31:08;20.17;;;13.10;;
46334;SDS011;32051;48.882;9.210;2023-03-01T05:33:37;23.35;;;12.98;;
46334;SDS011;32051;48.882;9.210;2023-03-01T05:36:04;16.65;;;11.82;;
46334;SDS011;32051;48.882;9.210;2023-03-01T05:38:32;22.00;;;13.00;;
46334;SDS011;32051;48.882;9.210;2023-03-01T05:40:58;19.40;;;13.27;;
46334;SDS011;32051;48.882;9.210;2023-03-01T05:43:23;20.25;;;12.70;;
46334;SDS011;32051;48.882;9.210;2023-03-01T05:45:49;19.08;;;12.77;;
46334;SDS011;32051;48.882;9.210;2023-03-01T05:48:15;21.58;;;13.15;;
46334;SDS011;32051;48.882;9.210;2023-03-01T05:50:41;21.63;;;12.90;;
46334;SDS011;32051;48.882;9.210;2023-03-01T05:53:10;19.50;;;12.48;;
46334;SDS011;32051;48.882;9.210;2023-03-01T05:55:37;18.13;;;13.10;;
46334;SDS011;32051;48.882;9.210;2023-03-01T05:58:05;23.60;;;12.43;;
46334;SDS011;32051;48.882;9.210;2023-03-01T06:00:32;27.20;;;13.07;;
46334;SDS011;32051;48.882;9.210;2023-03-01T06:02:58;22.17;;;14.18;;
46334;SDS011;32051;48.882;9.210;2023-03-01T06:05:24;20.65;;;12.27;;
46334;SDS011;32051;48.882;9.210;2023-03-01T06:07:51;22.77;;;13.77;;
46334;SDS011;32051;48.882;9.210;2023-03-01T06:10:18;20.88;;;13.45;;
46334;SDS011;32051;48.882;9.210;2023-03-01T06:12:44;22.17;;;12.57;;
46334;SDS011;32051;48.882;9.210;2023-03-01T06:15:11;21.17;;;13.23;;
46334;SDS011;32051;48.882;9.210;2023-03-01T06:17:39;16.38;;;12.52;;
46334;SDS011;32051;48.882;9.210;2023-03-01T06:20:10;22.67;;;13.25;;
46334;SDS011;32051;48.882;9.210;2023-03-01T06:22:37;20.38;;;12.75;;
46334;SDS011;32051;48.882;9.210;2023-03-01T06:25:04;18.95;;;12.18;;
46334;SDS011;32051;48.882;9.210;2023-03-01T06:27:30;26.05;;;12.70;;
46334;SDS011;32051;48.882;9.210;2023-03-01T06:29:56;22.77;;;13.48;;
46334;SDS011;32051;48.882;9.210;2023-03-01T06:32:21;17.85;;;12.65;;
46334;SDS011;32051;48.882;9.210;2023-03-01T06:34:47;22.30;;;12.85;;
46334;SDS011;32051;48.882;9.210;2023-03-01T06:37:13;21.73;;;13.02;;
46334;SDS011;32051;48.882;9.210;2023-03-01T06:39:38;26.13;;;15.50;;
46334;SDS011;32051;48.882;9.210;2023-03-01T06:42:04;29.42;;;13.52;;
46334;SDS011;32051;48.882;9.210;2023-03-01T06:44:30;20.77;;;13.98;;
46334;SDS011;32051;48.882;9.210;2023-03-01T06:46:56;25.80;;;14.15;;
46334;SDS011;32051;48.882;9.210;2023-03-01T06:49:21;24.50;;;13.23;;
46334;SDS011;32051;48.882;9.210;2023-03-01T06:51:47;19.40;;;12.65;;
46334;SDS011;32051;48.882;9.210;2023-03-01T06:54:13;26.25;;;14.98;;
46334;SDS011;32051;48.882;9.210;2023-03-01T06:56:38;21.23;;;13.73;;
46334;SDS011;32051;48.882;9.210;2023-03-01T06:59:04;28.27;;;14.57;;
46334;SDS011;32051;48.882;9.210;2023-03-01T07:01:30;26.35;;;12.88;;
46334;SDS011;32051;48.882;9.210;2023-03-01T07:03:56;20.38;;;11.98;;
46334;SDS011;32051;48.882;9.210;2023-03-01T07:06:22;27.77;;;15.60;;
46334;SDS011;32051;48.882;9.210;2023-03-01T07:08:48;21.88;;;13.68;;
46334;SDS011;32051;48.882;9.210;2023-03-01T07:11:14;21.38;;;14.43;;
46334;SDS011;32051;48.882;9.210;2023-03-01T07:13:42;26.75;;;15.02;;
46334;SDS011;32051;48.882;9.210;2023-03-01T07:16:07;24.60;;;13.70;;
46334;SDS011;32051;48.882;9.210;2023-03-01T07:18:33;17.15;;;11.88;;
46334;SDS011;32051;48.882;9.210;2023-03-01T07:21:03;20.33;;;12.77;;
46334;SDS011;32051;48.882;9.210;2023-03-01T07:23:30;21.25;;;13.18;;
46334;SDS011;32051;48.882;9.210;2023-03-01T07:25:56;26.83;;;12.95;;
46334;SDS011;32051;48.882;9.210;2023-03-01T07:28:22;27.83;;;15.20;;
46334;SDS011;32051;48.882;9.210;2023-03-01T07:30:48;29.13;;;14.02;;
46334;SDS011;32051;48.882;9.210;2023-03-01T07:33:14;23.95;;;13.05;;
46334;SDS011;32051;48.882;9.210;2023-03-01T07:35:40;30.08;;;13.80;;
46334;SDS011;32051;48.882;9.210;2023-03-01T07:38:06;23.55;;;14.05;;
46334;SDS011;32051;48.882;9.210;2023-03-01T07:40:31;25.55;;;13.00;;
46334;SDS011;32051;48.882;9.210;2023-03-01T07:42:58;25.63;;;16.05;;
46334;SDS011;32051;48.882;9.210;2023-03-01T07:45:24;19.92;;;12.80;;
46334;SDS011;32051;48.882;9.210;2023-03-01T07:47:51;22.58;;;13.82;;
46334;SDS011;32051;48.882;9.210;2023-03-01T07:50:17;21.10;;;12.95;;
46334;SDS011;32051;48.882;9.210;2023-03-01T07:52:47;21.73;;;13.10;;
46334;SDS011;32051;48.882;9.210;2023-03-01T07:55:13;23.52;;;13.60;;
46334;SDS011;32051;48.882;9.210;2023-03-01T07:57:40;19.52;;;13.85;;
46334;SDS011;32051;48.882;9.210;2023-03-01T08:00:06;20.92;;;14.82;;
46334;SDS011;32051;48.882;9.210;2023-03-01T08:02:37;22.13;;;12.85;;
46334;SDS011;32051;48.882;9.210;2023-03-01T08:05:03;20.35;;;12.68;;
46334;SDS011;32051;48.882;9.210;2023-03-01T08:07:30;22.52;;;13.93;;
46334;SDS011;32051;48.882;9.210;2023-03-01T08:09:56;20.90;;;13.77;;
46334;SDS011;32051;48.882;9.210;2023-03-01T08:12:22;21.00;;;14.00;;
46334;SDS011;32051;48.882;9.210;2023-03-01T08:14:48;31.13;;;14.55;;
46334;SDS011;32051;48.882;9.210;2023-03-01T08:17:14;19.63;;;12.38;;
46334;SDS011;32051;48.882;9.210;2023-03-01T08:19:40;28.52;;;15.63;;
46334;SDS011;32051;48.882;9.210;2023-03-01T08:22:06;19.50;;;13.55;;
46334;SDS011;32051;48.882;9.210;2023-03-01T08:24:32;21.77;;;13.15;;
46334;SDS011;32051;48.882;9.210;2023-03-01T08:26:58;26.75;;;14.48;;
46334;SDS011;32051;48.882;9.210;2023-03-01T08:29:24;18.23;;;13.30;;
46334;SDS011;32051;48.882;9.210;2023-03-01T08:31:50;25.45;;;14.10;;
46334;SDS011;32051;48.882;9.210;2023-03-01T08:34:17;23.58;;;13.57;;
46334;SDS011;32051;48.882;9.210;2023-03-01T08:36:44;22.40;;;12.98;;
46334;SDS011;32051;48.882;9.210;2023-03-01T08:39:12;21.13;;;13.60;;
46334;SDS011;32051;48.882;9.210;2023-03-01T08:41:39;21.33;;;13.50;;
46334;SDS011;32051;48.882;9.210;2023-03-01T08:44:06;25.75;;;13.68;;
46334;SDS011;32051;48.882;9.210;2023-03-01T08:46:33;24.13;;;14.98;;
46334;SDS011;32051;48.882;9.210;2023-03-01T08:49:03;18.98;;;13.40;;
46334;SDS011;32051;48.882;9.210;2023-03-01T08:51:29;20.00;;;13.70;;
46334;SDS011;32051;48.882;9.210;2023-03-01T08:53:57;19.65;;;13.18;;
46334;SDS011;32051;48.882;9.210;2023-03-01T08:56:23;23.40;;;14.15;;
46334;SDS011;32051;48.882;9.210;2023-03-01T08:58:49;23.40;;;13.20;;
46334;SDS011;32051;48.882;9.210;2023-03-01T09:01:16;21.60;;;13.70;;
46334;SDS011;32051;48.882;9.210;2023-03-01T09:03:43;19.13;;;13.70;;
46334;SDS011;32051;48.882;9.210;2023-03-01T09:06:10;24.77;;;14.73;;
46334;SDS011;32051;48.882;9.210;2023-03-01T09:08:37;25.05;;;14.57;;
46334;SDS011;32051;48.882;9.210;2023-03-01T09:11:03;19.23;;;14.52;;
46334;SDS011;32051;48.882;9.210;2023-03-01T09:13:30;17.70;;;13.25;;
46334;SDS011;32051;48.882;9.210;2023-03-01T09:15:56;19.77;;;13.88;;
46334;SDS011;32051;48.882;9.210;2023-03-01T09:18:23;20.27;;;14.27;;
46334;SDS011;32051;48.882;9.210;2023-03-01T09:20:49;24.40;;;14.65;;
46334;SDS011;32051;48.882;9.210;2023-03-01T09:23:15;24.95;;;14.65;;
46334;SDS011;32051;48.882;9.210;2023-03-01T09:25:41;19.50;;;13.25;;
46334;SDS011;32051;48.882;9.210;2023-03-01T09:28:07;19.92;;;13.35;;
46334;SDS011;32051;48.882;9.210;2023-03-01T09:30:33;21.85;;;13.55;;
46334;SDS011;32051;48.882;9.210;2023-03-01T09:32:59;23.05;;;14.02;;
46334;SDS011;32051;48.882;9.210;2023-03-01T09:35:25;18.10;;;12.75;;
46334;SDS011;32051;48.882;9.210;2023-03-01T09:37:51;23.00;;;14.52;;
46334;SDS011;32051;48.882;9.210;2023-03-01T09:40:18;21.50;;;13.55;;
46334;SDS011;32051;48.882;9.210;2023-03-01T09:42:58;23.33;;;14.30;;
46334;SDS011;32051;48.882;9.210;2023-03-01T09:45:26;25.83;;;13.63;;
46334;SDS011;32051;48.882;9.210;2023-03-01T09:47:53;21.13;;;14.88;;
46334;SDS011;32051;48.882;9.210;2023-03-01T09:50:20;22.15;;;14.57;;
46334;SDS011;32051;48.882;9.210;2023-03-01T09:52:47;16.52;;;12.20;;
46334;SDS011;32051;48.882;9.210;2023-03-01T09:55:17;23.23;;;13.43;;
46334;SDS011;32051;48.882;9.210;2023-03-01T09:57:50;25.75;;;13.25;;
46334;SDS011;32051;48.882;9.210;2023-03-01T10:02:46;19.63;;;11.85;;
46334;SDS011;32051;48.882;9.210;2023-03-01T10:05:31;25.90;;;14.93;;
46334;SDS011;32051;48.882;9.210;2023-03-01T10:08:11;19.02;;;12.43;;
46334;SDS011;32051;48.882;9.210;2023-03-01T10:10:40;19.77;;;13.50;;
46334;SDS011;32051;48.882;9.210;2023-03-01T10:13:16;18.42;;;13.05;;
46334;SDS011;32051;48.882;9.210;2023-03-01T10:16:17;22.48;;;14.27;;
46334;SDS011;32051;48.882;9.210;2023-03-01T10:18:35;16.23;;;12.70;;
46334;SDS011;32051;48.882;9.210;2023-03-01T10:21:07;22.48;;;12.73;;
46334;SDS011;32051;48.882;9.210;2023-03-01T10:23:35;19.80;;;14.10;;
46334;SDS011;32051;48.882;9.210;2023-03-01T10:28:43;20.67;;;14.90;;
46334;SDS011;32051;48.882;9.210;2023-03-01T10:31:12;19.10;;;13.45;;
46334;SDS011;32051;48.882;9.210;2023-03-01T10:33:39;17.38;;;13.15;;
46334;SDS011;32051;48.882;9.210;2023-03-01T10:36:05;16.38;;;11.75;;
46334;SDS011;32051;48.882;9.210;2023-03-01T10:38:33;20.00;;;13.18;;
46334;SDS011;32051;48.882;9.210;2023-03-01T10:41:12;16.35;;;11.77;;
46334;SDS011;32051;48.882;9.210;2023-03-01T10:43:47;17.23;;;12.27;;
46334;SDS011;32051;48.882;9.210;2023-03-01T10:49:13;19.60;;;13.98;;
46334;SDS011;32051;48.882;9.210;2023-03-01T10:51:40;17.20;;;13.00;;
46334;SDS011;32051;48.882;9.210;2023-03-01T10:54:15;17.70;;;12.55;;
46334;SDS011;32051;48.882;9.210;2023-03-01T10:56:45;21.35;;;12.20;;
46334;SDS011;32051;48.882;9.210;2023-03-01T10:59:20;15.43;;;11.90;;
46334;SDS011;32051;48.882;9.210;2023-03-01T11:01:49;16.73;;;12.38;;
46334;SDS011;32051;48.882;9.210;2023-03-01T11:04:26;21.27;;;12.35;;
46334;SDS011;32051;48.882;9.210;2023-03-01T11:06:57;14.70;;;12.13;;
46334;SDS011;32051;48.882;9.210;2023-03-01T11:09:24;18.85;;;12.63;;
46334;SDS011;32051;48.882;9.210;2023-03-01T11:11:56;13.63;;;10.20;;
46334;SDS011;32051;48.882;9.210;2023-03-01T11:14:27;12.27;;;9.73;;
46334;SDS011;32051;48.882;9.210;2023-03-01T11:16:59;12.93;;;10.52;;
46334;SDS011;32051;48.882;9.210;2023-03-01T11:19:25;13.00;;;10.25;;
46334;SDS011;32051;48.882;9.210;2023-03-01T11:24:40;12.00;;;10.55;;
46334;SDS011;32051;48.882;9.210;2023-03-01T11:27:28;13.70;;;11.57;;
46334;SDS011;32051;48.882;9.210;2023-03-01T11:32:55;16.95;;;11.50;;
46334;SDS011;32051;48.882;9.210;2023-03-01T11:35:23;15.07;;;10.52;;
46334;SDS011;32051;48.882;9.210;2023-03-01T11:40:24;10.82;;;9.73;;
46334;SDS011;32051;48.882;9.210;2023-03-01T11:45:36;13.40;;;11.48;;
46334;SDS011;32051;48.882;9.210;2023-03-01T11:50:58;15.15;;;11.15;;
46334;SDS011;32051;48.882;9.210;2023-03-01T11:53:33;14.52;;;12.35;;
46334;SDS011;32051;48.882;9.210;2023-03-01T12:24:06;13.77;;;10.70;;
46334;SDS011;32051;48.882;9.210;2023-03-01T12:32:25;13.35;;;11.95;;
46334;SDS011;32051;48.882;9.210;2023-03-01T12:43:08;12.57;;;11.25;;
46334;SDS011;32051;48.882;9.210;2023-03-01T12:51:14;12.73;;;10.52;;
46334;SDS011;32051;48.882;9.210;2023-03-01T12:53:49;12.48;;;11.07;;
46334;SDS011;32051;48.882;9.210;2023-03-01T12:56:19;12.20;;;10.48;;
46334;SDS011;32051;48.882;9.210;2023-03-01T13:01:39;11.50;;;10.18;;
46334;SDS011;32051;48.882;9.210;2023-03-01T13:07:19;12.15;;;10.27;;
46334;SDS011;32051;48.882;9.210;2023-03-01T13:09:50;11.45;;;10.25;;
46334;SDS011;32051;48.882;9.210;2023-03-01T13:20:15;13.38;;;10.70;;
46334;SDS011;32051;48.882;9.210;2023-03-01T13:22:44;11.15;;;10.10;;
46334;SDS011;32051;48.882;9.210;2023-03-01T13:25:16;16.02;;;10.32;;
46334;SDS011;32051;48.882;9.210;2023-03-01T13:27:43;14.57;;;10.52;;
46334;SDS011;32051;48.882;9.210;2023-03-01T13:33:14;12.48;;;10.52;;
46334;SDS011;32051;48.882;9.210;2023-03-01T13:35:42;26.15;;;10.93;;
46334;SDS011;32051;48.882;9.210;2023-03-01T13:41:05;15.60;;;10.75;;
46334;SDS011;32051;48.882;9.210;2023-03-01T13:43:32;11.75;;;10.30;;
46334;SDS011;32051;48.882;9.210;2023-03-01T13:46:16;18.23;;;12.00;;
46334;SDS011;32051;48.882;9.210;2023-03-01T13:48:52;13.52;;;11.82;;
46334;SDS011;32051;48.882;9.210;2023-03-01T13:51:25;26.10;;;11.75;;
46334;SDS011;32051;48.882;9.210;2023-03-01T13:53:52;17.58;;;12.60;;
46334;SDS011;32051;48.882;9.210;2023-03-01T13:56:33;13.32;;;10.77;;
46334;SDS011;32051;48.882;9.210;2023-03-01T13:59:02;14.48;;;11.77;;
46334;SDS011;32051;48.882;9.210;2023-03-01T14:01:32;16.15;;;11.60;;
46334;SDS011;32051;48.882;9.210;2023-03-01T14:04:00;21.13;;;12.10;;
46334;SDS011;32051;48.882;9.210;2023-03-01T14:06:32;15.85;;;11.05;;
46334;SDS011;32051;48.882;9.210;2023-03-01T14:09:10;20.83;;;12.93;;
46334;SDS011;32051;48.882;9.210;2023-03-01T14:12:04;14.15;;;12.55;;
46334;SDS011;32051;48.882;9.210;2023-03-01T14:14:38;18.25;;;12.32;;
46334;SDS011;32051;48.882;9.210;2023-03-01T14:17:16;20.48;;;12.95;;
46334;SDS011;32051;48.882;9.210;2023-03-01T14:19:45;18.58;;;12.90;;
46334;SDS011;32051;48.882;9.210;2023-03-01T14:22:27;17.83;;;13.02;;
46334;SDS011;32051;48.882;9.210;2023-03-01T14:24:54;15.73;;;12.32;;
46334;SDS011;32051;48.882;9.210;2023-03-01T14:27:21;16.80;;;13.40;;
46334;SDS011;32051;48.882;9.210;2023-03-01T14:29:54;16.48;;;12.77;;
46334;SDS011;32051;48.882;9.210;2023-03-01T14:32:25;19.73;;;12.60;;
46334;SDS011;32051;48.882;9.210;2023-03-01T14:34:52;18.02;;;12.93;;
46334;SDS011;32051;48.882;9.210;2023-03-01T14:39:46;25.20;;;13.52;;
46334;SDS011;32051;48.882;9.210;2023-03-01T14:42:12;22.42;;;13.18;;
46334;SDS011;32051;48.882;9.210;2023-03-01T14:44:40;13.65;;;11.70;;
46334;SDS011;32051;48.882;9.210;2023-03-01T14:47:10;20.25;;;13.82;;
46334;SDS011;32051;48.882;9.210;2023-03-01T14:49:38;19.73;;;12.55;;
46334;SDS011;32051;48.882;9.210;2023-03-01T14:52:06;24.27;;;13.27;;
46334;SDS011;32051;48.882;9.210;2023-03-01T14:56:59;19.50;;;13.95;;
46334;SDS011;32051;48.882;9.210;2023-03-01T14:59:26;15.30;;;12.63;;
46334;SDS011;32051;48.882;9.210;2023-03-01T15:01:53;19.80;;;12.93;;
46334;SDS011;32051;48.882;9.210;2023-03-01T15:04:20;17.83;;;12.68;;
46334;SDS011;32051;48.882;9.210;2023-03-01T15:06:47;16.80;;;12.93;;
46334;SDS011;32051;48.882;9.210;2023-03-01T15:09:15;14.73;;;12.18;;
46334;SDS011;32051;48.882;9.210;2023-03-01T15:11:42;19.45;;;12.43;;
46334;SDS011;32051;48.882;9.210;2023-03-01T15:14:27;17.52;;;13.30;;
46334;SDS011;32051;48.882;9.210;2023-03-01T15:16:54;15.35;;;13.35;;
46334;SDS011;32051;48.882;9.210;2023-03-01T15:19:21;19.05;;;12.57;;
46334;SDS011;32051;48.882;9.210;2023-03-01T15:21:49;18.65;;;12.50;;
46334;SDS011;32051;48.882;9.210;2023-03-01T15:24:17;22.25;;;13.65;;
46334;SDS011;32051;48.882;9.210;2023-03-01T15:26:56;21.67;;;12.35;;
46334;SDS011;32051;48.882;9.210;2023-03-01T15:29:23;17.80;;;13.57;;
46334;SDS011;32051;48.882;9.210;2023-03-01T15:31:56;25.65;;;13.18;;
46334;SDS011;32051;48.882;9.210;2023-03-01T15:36:50;18.27;;;13.85;;
46334;SDS011;32051;48.882;9.210;2023-03-01T15:42:05;19.55;;;13.13;;
46334;SDS011;32051;48.882;9.210;2023-03-01T15:44:34;23.20;;;12.60;;
46334;SDS011;32051;48.882;9.210;2023-03-01T15:47:02;20.65;;;12.38;;
46334;SDS011;32051;48.882;9.210;2023-03-01T15:49:42;37.42;;;14.43;;
46334;SDS011;32051;48.882;9.210;2023-03-01T15:52:15;18.77;;;12.60;;
46334;SDS011;32051;48.882;9.210;2023-03-01T15:54:54;22.05;;;12.93;;
46334;SDS011;32051;48.882;9.210;2023-03-01T15:57:25;18.55;;;11.27;;
46334;SDS011;32051;48.882;9.210;2023-03-01T15:59:50;17.70;;;12.38;;
46334;SDS011;32051;48.882;9.210;2023-03-01T16:02:17;17.42;;;11.88;;
46334;SDS011;32051;48.882;9.210;2023-03-01T16:04:45;20.58;;;12.23;;
46334;SDS011;32051;48.882;9.210;2023-03-01T16:07:13;20.75;;;12.95;;
46334;SDS011;32051;48.882;9.210;2023-03-01T16:09:39;19.02;;;13.80;;
46334;SDS011;32051;48.882;9.210;2023-03-01T16:12:05;19.67;;;13.23;;
46334;SDS011;32051;48.882;9.210;2023-03-01T16:14:34;21.38;;;13.02;;
46334;SDS011;32051;48.882;9.210;2023-03-01T16:16:59;15.82;;;11.57;;